.
WxDataArchive / Data Records for 2010-05-05
2010-05-04 May 2010 2010-05-06

Data Records for Wednesday, 05 May 2010

Time	Temp	Chill	HIndex	Humid	Dewpt	 Wind 	HiWind	WindDir	Rain 	Barom 
-----	----	-----	------	-----	-----	------	------	-------	-----	----- 
00:00	62.9	62.9	62.9	56	47.0	0	3	292	0.00	29.847 
00:05	62.9	62.9	62.9	56	47.0	0	1	292	0.00	29.847 
00:10	62.9	62.9	62.9	56	47.0	0	2	292	0.00	29.847 
00:15	62.9	62.9	62.9	56	47.0	0	3	292	0.00	29.850 
00:20	62.7	62.7	62.7	57	47.2	0	2	292	0.00	29.850 
00:25	62.6	62.6	62.6	57	47.1	0	1	292	0.00	29.850 
00:30	62.4	62.4	62.4	57	47.0	0	1	292	0.00	29.850 
00:35	62.3	62.3	62.3	58	47.3	0	2	292	0.00	29.850 
00:40	62.1	62.1	62.1	58	47.1	0	1	292	0.00	29.850 
00:45	61.8	61.8	61.8	59	47.3	0	0	---	0.00	29.848 
00:50	61.5	61.5	61.5	59	47.0	0	0	---	0.00	29.848 
00:55	61.0	61.0	61.0	60	47.0	0	0	---	0.00	29.848 
01:00	60.7	60.7	60.7	61	47.2	0	1	292	0.00	29.849 
01:05	60.5	60.5	60.5	62	47.4	0	0	---	0.00	29.849 
01:10	60.2	60.2	60.2	63	47.6	0	0	---	0.00	29.849 
01:15	59.9	59.9	59.9	63	47.3	0	0	---	0.00	29.847 
01:20	59.6	59.6	59.6	63	47.0	0	1	292	0.00	29.847 
01:25	59.5	59.5	59.5	64	47.3	0	0	---	0.00	29.847 
01:30	59.3	59.3	59.3	64	47.1	0	1	292	0.00	29.847 
01:35	59.2	59.2	59.2	65	47.4	0	0	---	0.00	29.847 
01:40	59.2	59.2	59.2	65	47.4	0	0	---	0.00	29.847 
01:45	59.0	59.0	59.0	65	47.2	0	0	---	0.00	29.840 
01:50	58.9	58.9	58.9	65	47.2	0	0	---	0.00	29.840 
01:55	59.0	59.0	59.0	65	47.2	0	1	292	0.00	29.840 
02:00	59.0	59.0	59.0	65	47.2	0	1	292	0.00	29.839 
02:05	59.0	59.0	59.0	65	47.2	0	1	292	0.00	29.839 
02:10	58.9	58.9	58.9	65	47.2	0	1	292	0.00	29.839 
02:15	58.9	58.9	58.9	65	47.2	0	1	292	0.00	29.836 
02:20	58.9	58.9	58.9	65	47.2	0	1	292	0.00	29.836 
02:25	58.9	58.9	58.9	65	47.2	0	2	292	0.00	29.836 
02:30	58.7	58.7	58.7	65	47.0	0	1	292	0.00	29.836 
02:35	58.6	58.6	58.6	65	46.9	0	0	---	0.00	29.836 
02:40	58.4	58.4	58.4	65	46.7	0	0	---	0.00	29.836 
02:45	58.4	58.4	58.4	65	46.7	0	1	292	0.00	29.830 
02:50	58.4	58.4	58.4	65	46.7	0	1	292	0.00	29.830 
02:55	58.4	58.4	58.4	65	46.7	0	1	292	0.00	29.830 
03:00	58.3	58.3	58.3	65	46.6	0	0	---	0.00	29.827 
03:05	58.3	58.3	58.3	65	46.6	0	1	292	0.00	29.827 
03:10	58.3	58.3	58.3	65	46.6	0	0	---	0.00	29.827 
03:15	58.1	58.1	58.1	65	46.4	0	1	292	0.00	29.823 
03:20	57.8	57.8	57.8	65	46.1	0	0	---	0.00	29.823 
03:25	57.6	57.6	57.6	66	46.3	0	0	---	0.00	29.823 
03:30	57.5	57.5	57.5	66	46.2	0	0	---	0.00	29.821 
03:35	57.2	57.2	57.2	66	45.9	0	0	---	0.00	29.821 
03:40	57.0	57.0	57.0	67	46.2	0	1	292	0.00	29.821 
03:45	57.0	57.0	57.0	66	45.8	0	1	292	0.00	29.815 
03:50	56.9	56.9	56.9	66	45.7	0	1	292	0.00	29.815 
03:55	56.9	56.9	56.9	66	45.7	0	0	---	0.00	29.815 
04:00	56.7	56.7	56.7	66	45.5	0	0	---	0.00	29.814 
04:05	56.7	56.7	56.7	66	45.5	0	0	---	0.00	29.814 
04:10	56.7	56.7	56.7	66	45.5	0	0	---	0.00	29.814 
04:15	56.7	56.7	56.7	66	45.5	0	1	292	0.00	29.812 
04:20	56.7	56.7	56.7	66	45.5	0	0	---	0.00	29.812 
04:25	56.9	56.9	56.9	66	45.7	0	0	---	0.00	29.812 
04:30	56.7	56.7	56.7	66	45.5	0	0	---	0.00	29.814 
04:35	56.7	56.7	56.7	66	45.5	0	0	---	0.00	29.814 
04:40	56.6	56.6	56.6	67	45.8	0	1	292	0.00	29.814 
04:45	56.5	56.5	56.5	67	45.7	0	0	---	0.00	29.820 
04:50	56.3	56.3	56.3	67	45.5	0	1	292	0.00	29.820 
04:55	56.2	56.2	56.2	67	45.4	0	1	292	0.00	29.820 
05:00	56.0	56.0	56.0	68	45.6	0	0	---	0.00	29.823 
05:05	55.9	55.9	55.9	68	45.5	0	0	---	0.00	29.823 
05:10	55.7	55.7	55.7	68	45.3	0	0	---	0.00	29.823 
05:15	55.7	55.7	55.7	69	45.7	0	0	---	0.00	29.824 
05:20	55.6	55.6	55.6	69	45.6	0	0	---	0.00	29.824 
05:25	55.6	55.6	55.6	69	45.6	0	0	---	0.00	29.824 
05:30	55.6	55.6	55.6	69	45.6	0	0	---	0.00	29.823 
05:35	55.6	55.6	55.6	69	45.6	0	1	292	0.00	29.823 
05:40	55.7	55.7	55.7	69	45.7	0	0	---	0.00	29.823 
05:45	55.9	55.9	55.9	69	45.9	0	1	292	0.00	29.821 
05:50	55.9	55.9	55.9	68	45.5	0	1	292	0.00	29.821 
05:55	56.0	56.0	56.0	68	45.6	0	1	292	0.00	29.821 
06:00	56.2	56.2	56.2	69	46.2	0	1	292	0.00	29.817 
06:05	56.0	56.0	56.0	68	45.6	0	1	292	0.00	29.817 
06:10	56.0	56.0	56.0	69	46.0	0	1	292	0.00	29.817 
06:15	56.0	56.0	56.0	69	46.0	0	2	292	0.00	29.810 
06:20	56.2	56.2	56.2	68	45.8	0	1	292	0.00	29.810 
06:25	56.3	56.3	56.3	68	45.9	0	1	292	0.00	29.810 
06:30	56.3	56.3	56.3	68	45.9	0	1	292	0.00	29.808 
06:35	56.3	56.3	56.3	68	45.9	0	0	---	0.00	29.808 
06:40	56.2	56.2	56.2	68	45.8	0	0	---	0.00	29.808 
06:45	56.2	56.2	56.2	68	45.8	0	0	---	0.00	29.805 
06:50	56.2	56.2	56.2	68	45.8	0	0	---	0.00	29.805 
06:55	56.3	56.3	56.3	68	45.9	0	1	292	0.00	29.805 
07:00	56.5	56.5	56.5	67	45.7	0	1	292	0.00	29.803 
07:05	56.7	56.7	56.7	67	45.9	0	1	292	0.00	29.803 
07:10	57.0	57.0	57.0	66	45.8	0	1	292	0.00	29.803 
07:15	57.2	57.2	57.2	66	45.9	0	1	292	0.00	29.798 
07:20	57.5	57.5	57.5	65	45.8	0	2	292	0.00	29.798 
07:25	58.1	58.1	58.1	64	46.0	0	3	292	0.00	29.798 
07:30	58.4	58.4	58.4	63	45.9	0	3	248	0.00	29.793 
07:35	59.0	59.0	59.0	63	46.4	0	3	248	0.00	29.793 
07:40	59.5	59.5	59.5	62	46.5	1	4	248	0.00	29.793 
07:45	59.9	59.9	59.9	61	46.4	1	5	248	0.00	29.791 
07:50	60.5	60.5	60.5	60	46.5	1	3	292	0.00	29.791 
07:55	61.0	61.0	61.0	59	46.6	1	6	270	0.00	29.791 
08:00	61.5	61.5	61.5	60	47.5	1	4	248	0.00	29.789 
08:05	62.0	62.0	62.0	58	47.0	1	6	248	0.00	29.789 
08:10	62.3	62.3	62.3	58	47.3	2	5	248	0.00	29.789 
08:15	62.7	62.7	62.7	57	47.2	2	5	270	0.00	29.793 
08:20	63.1	63.1	63.1	58	48.1	1	4	292	0.00	29.793 
08:25	63.4	63.4	63.4	58	48.4	1	4	248	0.00	29.793 
08:30	63.9	63.9	63.9	58	48.8	1	3	270	0.00	29.791 
08:35	64.2	64.2	64.2	58	49.1	1	5	248	0.00	29.791 
08:40	64.5	64.5	64.5	58	49.4	1	4	292	0.00	29.791 
08:45	65.0	65.0	65.0	56	48.9	1	7	270	0.00	29.788 
08:50	65.3	65.3	65.3	56	49.2	1	6	270	0.00	29.788 
08:55	65.8	65.8	65.8	57	50.1	1	4	248	0.00	29.788 
09:00	66.3	66.3	66.3	56	50.1	1	4	292	0.00	29.779 
09:05	66.8	66.8	66.8	58	51.5	0	3	270	0.00	29.779 
09:10	67.4	67.4	67.4	57	51.6	1	6	270	0.00	29.779 
09:15	68.1	68.1	68.1	56	51.8	1	5	248	0.00	29.775 
09:20	68.4	68.4	68.4	55	51.6	2	5	248	0.00	29.775 
09:25	68.9	68.9	68.9	54	51.6	2	5	270	0.00	29.775 
09:30	69.4	69.4	69.4	54	52.0	1	5	270	0.00	29.770 
09:35	69.8	69.8	69.8	54	52.4	3	7	270	0.00	29.770 
09:40	69.8	69.8	69.8	51	50.8	2	6	270	0.00	29.770 
09:45	69.6	69.6	69.6	52	51.2	2	6	270	0.00	29.785 
09:50	69.4	69.4	69.4	53	51.5	2	5	248	0.00	29.785 
09:55	68.9	68.9	68.9	54	51.6	2	5	270	0.00	29.785 
10:00	69.1	69.1	69.1	54	51.7	1	4	248	0.00	29.778 
10:05	69.6	69.6	69.6	54	52.2	2	5	248	0.00	29.778 
10:10	70.1	70.1	70.1	54	52.7	1	4	248	0.00	29.778 
10:15	70.8	70.8	70.8	54	53.3	1	5	248	0.00	29.766 
10:20	71.3	71.3	71.3	53	53.3	2	3	248	0.00	29.766 
10:25	71.6	71.6	71.6	52	53.0	2	5	292	0.00	29.766 
10:30	71.6	71.6	71.6	52	53.0	2	6	248	0.00	29.769 
10:35	71.8	71.8	71.8	53	53.7	2	6	248	0.00	29.769 
10:40	72.0	72.0	72.0	52	53.4	2	4	270	0.00	29.769 
10:45	72.5	72.5	72.5	50	52.8	2	4	248	0.00	29.769 
10:50	72.7	72.7	72.7	50	53.0	2	5	248	0.00	29.769 
10:55	72.7	72.7	72.7	50	53.0	3	9	270	0.00	29.769 
11:00	72.5	72.5	72.5	52	53.9	2	5	270	0.00	29.758 
11:05	72.7	72.7	72.7	50	53.0	2	5	248	0.00	29.758 
11:10	73.0	73.0	73.0	51	53.8	2	5	248	0.00	29.758 
11:15	73.3	73.3	73.3	50	53.5	2	6	248	0.00	29.755 
11:20	73.3	73.3	73.3	52	54.6	2	6	248	0.00	29.755 
11:25	73.5	73.5	73.5	50	53.7	2	6	270	0.00	29.755 
11:30	73.9	73.9	73.9	50	54.1	1	5	248	0.00	29.755 
11:35	73.9	73.9	73.9	49	53.5	2	6	270	0.00	29.755 
11:40	73.9	73.9	73.9	50	54.1	2	4	270	0.00	29.755 
11:45	74.0	74.0	74.0	51	54.7	2	5	270	0.00	29.754 
11:50	74.6	74.6	74.6	51	55.3	1	4	270	0.00	29.754 
11:55	74.7	74.7	74.7	49	54.3	1	4	225	0.00	29.754 
12:00	74.9	74.9	74.9	49	54.4	1	6	248	0.00	29.753 
12:05	75.1	75.1	77.7	50	55.2	2	9	248	0.00	29.753 
12:10	75.1	75.1	77.7	48	54.1	2	6	270	0.00	29.753 
12:15	75.4	75.4	77.8	50	55.4	1	4	270	0.00	29.750 
12:20	75.8	75.8	78.0	51	56.4	1	3	292	0.00	29.750 
12:25	76.1	76.1	78.1	52	57.2	2	5	270	0.00	29.750 
12:30	76.3	76.3	78.2	51	56.8	1	4	292	0.00	29.742 
12:35	76.5	76.5	78.3	49	55.9	1	5	338	0.00	29.742 
12:40	76.7	76.7	78.5	52	57.7	1	4	248	0.00	29.742 
12:45	76.7	76.7	78.4	49	56.1	2	5	248	0.00	29.736 
12:50	76.7	76.7	78.4	48	55.5	2	5	248	0.00	29.736 
12:55	76.5	76.5	78.3	50	56.5	2	7	248	0.00	29.736 
13:00	76.5	76.5	78.3	50	56.5	1	4	248	0.00	29.726 
13:05	77.0	77.0	78.6	49	56.4	2	6	270	0.00	29.726 
13:10	77.4	77.4	78.8	49	56.7	1	3	292	0.00	29.726 
13:15	77.6	77.6	78.9	48	56.3	2	6	248	0.00	29.723 
13:20	77.9	77.9	79.1	49	57.2	1	7	270	0.00	29.723 
13:25	78.1	78.1	79.3	49	57.4	2	5	248	0.00	29.723 
13:30	78.1	78.1	79.3	49	57.4	2	9	292	0.00	29.722 
13:35	78.3	78.3	79.3	48	57.0	3	9	248	0.00	29.722 
13:40	77.9	77.9	79.0	47	56.0	4	9	270	0.00	29.722 
13:45	77.9	77.9	79.1	48	56.6	3	9	270	0.00	29.717 
13:50	78.3	78.3	79.4	50	58.1	3	6	270	0.00	29.717 
13:55	78.5	78.5	79.4	47	56.6	3	10	248	0.00	29.717 
14:00	79.0	79.0	79.9	49	58.2	2	5	248	0.00	29.713 
14:05	79.2	79.2	79.8	45	56.0	3	6	248	0.00	29.713 
14:10	79.4	79.4	79.8	44	55.6	4	9	270	0.00	29.713 
14:15	79.4	79.4	79.9	45	56.2	3	7	248	0.00	29.707 
14:20	79.4	79.4	79.8	44	55.6	4	11	248	0.00	29.707 
14:25	79.6	79.6	80.1	46	57.0	3	6	248	0.00	29.707 
14:30	79.8	79.8	80.3	46	57.2	3	6	270	0.00	29.705 
14:35	80.3	80.3	80.6	45	57.0	1	3	315	0.00	29.705 
14:40	79.8	79.8	80.0	42	54.6	4	9	248	0.00	29.705 
14:45	79.6	79.6	79.8	42	54.5	5	11	270	0.00	29.705 
14:50	79.8	79.8	80.0	43	55.3	4	9	270	0.00	29.705 
14:55	79.4	79.4	79.8	43	54.9	2	5	292	0.00	29.705 
15:00	79.6	79.6	80.0	44	55.7	3	10	248	0.00	29.701 
15:05	79.4	79.4	79.8	44	55.6	4	9	270	0.00	29.701 
15:10	78.8	78.8	79.5	45	55.6	4	10	270	0.00	29.701 
15:15	79.0	79.0	79.6	45	55.8	3	6	270	0.00	29.697 
15:20	79.6	79.6	80.2	47	57.6	2	6	248	0.00	29.697 
15:25	80.1	80.1	80.4	45	56.8	2	5	270	0.00	29.697 
15:30	80.5	80.5	80.5	42	55.3	4	11	248	0.00	29.694 
15:35	79.8	79.8	80.3	46	57.2	3	6	270	0.00	29.694 
15:40	79.9	79.9	80.4	47	57.8	2	7	270	0.00	29.694 
15:45	79.8	79.8	80.3	46	57.2	3	7	270	0.00	29.695 
15:50	79.4	79.4	80.1	48	58.0	3	6	270	0.00	29.695 
15:55	78.6	78.6	79.6	49	57.8	3	6	292	0.00	29.695 
16:00	78.5	78.5	79.5	49	57.7	4	9	270	0.00	29.700 
16:05	78.6	78.6	79.7	50	58.4	3	6	270	0.00	29.700 
16:10	78.8	78.8	79.7	48	57.4	4	6	270	0.00	29.700 
16:15	78.8	78.8	79.7	48	57.4	3	7	270	0.00	29.699 
16:20	78.1	78.1	79.3	49	57.4	3	6	270	0.00	29.699 
16:25	77.6	77.6	79.0	50	57.5	3	6	270	0.00	29.699 
16:30	77.2	77.2	78.8	52	58.2	2	5	338	0.00	29.696 
16:35	76.1	76.1	78.1	53	57.7	2	5	315	0.00	29.696 
16:40	75.1	75.1	77.6	54	57.3	2	6	315	0.00	29.696 
16:45	74.4	74.4	74.4	54	56.7	2	5	338	0.00	29.698 
16:50	74.4	74.4	74.4	56	57.7	1	2	315	0.00	29.698 
16:55	74.4	74.4	74.4	54	56.7	2	5	315	0.00	29.698 
17:00	74.0	74.0	74.0	55	56.8	1	4	315	0.00	29.701 
17:05	74.0	74.0	74.0	55	56.8	1	4	315	0.00	29.701 
17:10	74.4	74.4	74.4	53	56.1	2	6	270	0.00	29.701 
17:15	74.4	74.4	74.4	53	56.1	2	6	338	0.00	29.702 
17:20	73.9	73.9	73.9	54	56.2	2	6	315	0.00	29.702 
17:25	73.3	73.3	73.3	52	54.6	3	6	315	0.00	29.702 
17:30	72.5	72.5	72.5	52	53.9	3	7	292	0.00	29.713 
17:35	71.6	71.6	71.6	54	54.1	2	4	292	0.00	29.713 
17:40	71.1	71.1	71.1	54	53.6	3	6	315	0.00	29.713 
17:45	70.3	70.3	70.3	55	53.4	3	6	292	0.00	29.717 
17:50	69.8	69.8	69.8	58	54.3	2	3	292	0.00	29.717 
17:55	69.4	69.4	69.4	58	54.0	2	9	315	0.00	29.717 
18:00	68.6	68.6	68.6	59	53.7	1	3	292	0.00	29.732 
18:05	67.8	67.8	67.8	59	52.9	1	6	292	0.00	29.732 
18:10	66.8	66.8	66.8	61	52.9	2	5	315	0.00	29.732 
18:15	66.1	66.1	66.1	62	52.7	1	4	292	0.00	29.732 
18:20	65.8	65.8	65.8	62	52.4	1	4	292	0.00	29.732 
18:25	65.6	65.6	65.6	62	52.2	1	5	315	0.00	29.732 
18:30	65.5	65.5	65.5	62	52.1	1	5	292	0.00	29.735 
18:35	65.2	65.2	65.2	61	51.4	1	4	315	0.00	29.735 
18:40	64.7	64.7	64.7	62	51.4	3	7	270	0.00	29.735 
18:45	64.5	64.5	64.5	62	51.2	1	3	270	0.00	29.742 
18:50	64.3	64.3	64.3	62	51.0	0	2	292	0.00	29.742 
18:55	64.3	64.3	64.3	62	51.0	0	1	292	0.00	29.742 
19:00	64.2	64.2	64.2	62	50.9	1	4	292	0.00	29.752 
19:05	64.2	64.2	64.2	62	50.9	1	2	315	0.00	29.752 
19:10	64.0	64.0	64.0	63	51.1	1	4	315	0.00	29.752 
19:15	63.9	63.9	63.9	64	51.5	0	1	315	0.00	29.744 
19:20	63.9	63.9	63.9	65	51.9	0	1	315	0.00	29.744 
19:25	63.7	63.7	63.7	66	52.1	0	1	315	0.00	29.744 
19:30	63.7	63.7	63.7	67	52.5	0	2	315	0.00	29.739 
19:35	63.7	63.7	63.7	68	52.9	0	1	315	0.00	29.739 
19:40	63.4	63.4	63.4	70	53.4	0	2	315	0.00	29.739 
19:45	63.1	63.1	63.1	71	53.5	0	1	315	0.00	29.749 
19:50	63.1	63.1	63.1	72	53.9	0	1	315	0.00	29.749 
19:55	63.1	63.1	63.1	71	53.5	0	1	315	0.00	29.749 
20:00	63.1	63.1	63.1	70	53.2	0	2	315	0.00	29.749 
20:05	63.1	63.1	63.1	70	53.2	0	1	315	0.00	29.749 
20:10	63.1	63.1	63.1	70	53.2	0	1	315	0.00	29.749 
20:15	63.1	63.1	63.1	70	53.2	0	0	---	0.00	29.748 
20:20	63.1	63.1	63.1	69	52.8	0	1	315	0.00	29.748 
20:25	63.1	63.1	63.1	67	52.0	0	1	315	0.00	29.748 
20:30	63.2	63.2	63.2	65	51.2	0	1	315	0.00	29.756 
20:35	63.4	63.4	63.4	64	51.0	0	1	315	0.00	29.756 
20:40	63.5	63.5	63.5	63	50.7	0	3	248	0.00	29.756 
20:45	63.7	63.7	63.7	63	50.9	0	1	248	0.00	29.758 
20:50	63.7	63.7	63.7	62	50.4	0	2	248	0.00	29.758 
20:55	63.7	63.7	63.7	62	50.4	0	1	270	0.00	29.758 
21:00	63.7	63.7	63.7	62	50.4	0	2	270	0.00	29.759 
21:05	63.7	63.7	63.7	63	50.9	0	0	---	0.00	29.759 
21:10	63.5	63.5	63.5	63	50.7	0	2	270	0.00	29.759 
21:15	63.5	63.5	63.5	63	50.7	0	1	270	0.00	29.764 
21:20	63.4	63.4	63.4	63	50.6	0	1	270	0.00	29.764 
21:25	63.4	63.4	63.4	64	51.0	0	1	270	0.00	29.764 
21:30	63.2	63.2	63.2	64	50.8	0	1	270	0.00	29.773 
21:35	63.2	63.2	63.2	63	50.4	0	1	270	0.00	29.773 
21:40	63.2	63.2	63.2	63	50.4	0	0	---	0.00	29.773 
21:45	63.2	63.2	63.2	63	50.4	0	0	---	0.00	29.769 
21:50	63.2	63.2	63.2	63	50.4	0	1	270	0.00	29.769 
21:55	63.1	63.1	63.1	63	50.3	0	0	---	0.00	29.769 
22:00	63.1	63.1	63.1	64	50.7	0	0	---	0.00	29.771 
22:05	62.9	62.9	62.9	64	50.5	0	0	---	0.00	29.771 
22:10	62.7	62.7	62.7	64	50.3	0	0	---	0.00	29.771 
22:15	62.7	62.7	62.7	64	50.3	0	0	---	0.00	29.771 
22:20	62.6	62.6	62.6	65	50.7	0	0	---	0.00	29.771 
22:25	62.4	62.4	62.4	65	50.5	0	0	---	0.00	29.771 
22:30	62.3	62.3	62.3	65	50.4	0	0	---	0.00	29.782 
22:35	62.1	62.1	62.1	65	50.2	0	0	---	0.00	29.782 
22:40	62.1	62.1	62.1	64	49.8	0	1	270	0.00	29.782 
22:45	62.1	62.1	62.1	64	49.8	0	0	---	0.00	29.781 
22:50	62.1	62.1	62.1	64	49.8	0	1	270	0.00	29.781 
22:55	62.3	62.3	62.3	64	50.0	0	1	270	0.00	29.781 
23:00	62.3	62.3	62.3	64	50.0	0	1	270	0.00	29.785 
23:05	62.4	62.4	62.4	63	49.6	0	1	270	0.00	29.785 
23:10	62.4	62.4	62.4	64	50.1	0	0	---	0.00	29.785 
23:15	62.4	62.4	62.4	64	50.1	0	0	---	0.00	29.785 
23:20	62.4	62.4	62.4	64	50.1	0	1	270	0.00	29.785 
23:25	62.3	62.3	62.3	64	50.0	0	1	270	0.00	29.785 
23:30	62.3	62.3	62.3	64	50.0	0	0	---	0.00	29.787 
23:35	62.1	62.1	62.1	65	50.2	0	0	---	0.00	29.787 
23:40	62.0	62.0	62.0	65	50.1	0	1	270	0.00	29.787 
23:45	62.0	62.0	62.0	65	50.1	0	1	270	0.00	29.787 
23:50	61.8	61.8	61.8	65	49.9	0	1	270	0.00	29.787 
23:55	61.8	61.8	61.8	64	49.5	0	1	270	0.00	29.787 

CoCoRaHS
IN-AL-39
A2 Web Hosting
Creative Commons License
GoDaddy
search engine by freefind advanced

loaded 2018-11-17 22:28:23 • last modified 2010-11-18 10:43:29
Privacy PolicyDisclaimer
• wx.awcolley.com is powered by PmWiki v.2002016 •
• all content (unless otherwise noted) © 2018 A W Colley